createdAt,value
2022-11-28T00:00:08.559Z,48.28
2022-11-28T00:03:01.666Z,49.73
2022-11-28T00:05:30.779Z,50.50
2022-11-28T00:07:59.492Z,50.10
2022-11-28T00:10:29.780Z,50.23
2022-11-28T00:12:58.339Z,54.27
2022-11-28T00:15:27.212Z,50.97
2022-11-28T00:17:55.793Z,53.95
2022-11-28T00:20:25.235Z,50.70
2022-11-28T00:22:53.805Z,51.00
2022-11-28T00:25:22.675Z,56.47
2022-11-28T00:27:52.572Z,52.10
2022-11-28T00:30:21.624Z,52.20
2022-11-28T00:32:50.414Z,52.27
2022-11-28T00:35:19.371Z,52.80
2022-11-28T00:37:47.978Z,51.97
2022-11-28T00:40:17.057Z,50.47
2022-11-28T00:42:45.754Z,49.97
2022-11-28T00:45:16.119Z,50.42
2022-11-28T00:47:46.765Z,49.53
2022-11-28T00:50:15.698Z,51.77
2022-11-28T00:52:44.264Z,50.13
2022-11-28T00:55:13.175Z,51.37
2022-11-28T00:57:41.900Z,50.50
2022-11-28T01:00:11.993Z,49.77
2022-11-28T01:02:41.996Z,48.50
2022-11-28T01:05:11.140Z,48.83
2022-11-28T01:07:42.420Z,52.33
2022-11-28T01:10:13.381Z,49.87
2022-11-28T01:12:41.938Z,49.87
2022-11-28T01:15:14.072Z,50.10
2022-11-28T01:17:43.977Z,48.97
2022-11-28T01:20:14.651Z,49.27
2022-11-28T01:22:43.241Z,52.83
2022-11-28T01:25:12.071Z,50.57
2022-11-28T01:27:40.637Z,49.40
2022-11-28T01:30:10.241Z,52.20
2022-11-28T01:32:38.817Z,49.30
2022-11-28T01:35:10.885Z,50.22
2022-11-28T01:37:39.527Z,49.80
2022-11-28T01:40:10.254Z,54.33
2022-11-28T01:42:38.782Z,51.13
2022-11-28T01:45:18.293Z,49.93
2022-11-28T01:47:49.487Z,48.80
2022-11-28T01:50:22.494Z,51.77
2022-11-28T01:52:58.121Z,50.73
2022-11-28T01:55:34.566Z,49.37
2022-11-28T01:58:03.406Z,49.80
2022-11-28T02:00:34.716Z,49.43
2022-11-28T02:03:11.227Z,48.43
2022-11-28T02:05:42.172Z,49.93
2022-11-28T02:08:11.777Z,50.13
2022-11-28T02:11:02.603Z,49.60
2022-11-28T02:13:47.409Z,49.67
2022-11-28T02:16:43.119Z,47.03
2022-11-28T02:20:06.098Z,50.23
2022-11-28T02:22:47.169Z,46.63
2022-11-28T02:25:50.151Z,49.40
2022-11-28T02:29:04.308Z,48.60
2022-11-28T02:32:17.763Z,48.80
2022-11-28T02:34:57.737Z,48.83
2022-11-28T02:37:37.362Z,45.03
2022-11-28T02:40:19.352Z,49.17
2022-11-28T02:43:04.038Z,49.80
2022-11-28T02:45:42.763Z,46.77
2022-11-28T02:48:24.213Z,46.50
2022-11-28T02:51:02.270Z,46.27
2022-11-28T02:53:34.806Z,46.37
2022-11-28T02:56:04.220Z,45.07
2022-11-28T02:58:32.786Z,46.23
2022-11-28T03:01:02.147Z,45.57
2022-11-28T03:04:09.944Z,48.13
2022-11-28T03:06:54.704Z,45.43
2022-11-28T03:09:57.160Z,46.47
2022-11-28T03:12:39.597Z,43.80
2022-11-28T03:15:13.328Z,46.93
2022-11-28T03:17:54.337Z,46.67
2022-11-28T03:20:32.580Z,43.77
2022-11-28T03:23:15.741Z,46.63
2022-11-28T03:25:59.033Z,43.80
2022-11-28T03:28:39.304Z,44.87
2022-11-28T03:31:16.841Z,44.10
2022-11-28T03:33:52.875Z,45.07
2022-11-28T03:36:29.041Z,45.03
2022-11-28T03:39:05.814Z,43.97
2022-11-28T03:41:39.709Z,41.93
2022-11-28T03:44:16.583Z,41.70
2022-11-28T03:46:51.385Z,43.33
2022-11-28T03:49:28.303Z,41.23
2022-11-28T03:52:04.549Z,41.83
2022-11-28T03:54:41.632Z,43.50
2022-11-28T03:57:16.540Z,42.63
2022-11-28T03:59:50.394Z,42.87
2022-11-28T04:02:30.623Z,42.13
2022-11-28T04:05:08.165Z,41.97
2022-11-28T04:07:46.878Z,42.10
2022-11-28T04:10:23.409Z,41.53
2022-11-28T04:13:00.354Z,41.90
2022-11-28T04:15:40.629Z,41.17
2022-11-28T04:18:24.738Z,41.37
2022-11-28T04:21:03.245Z,42.33
2022-11-28T04:23:36.778Z,42.90
2022-11-28T04:26:15.097Z,40.90
2022-11-28T04:28:46.581Z,39.80
2022-11-28T04:31:22.444Z,40.73
2022-11-28T04:33:58.461Z,40.20
2022-11-28T04:36:30.016Z,41.80
2022-11-28T04:39:02.149Z,40.57
2022-11-28T04:41:38.603Z,40.57
2022-11-28T04:44:17.982Z,41.00
2022-11-28T04:46:55.023Z,39.80
2022-11-28T04:49:26.968Z,40.77
2022-11-28T04:52:05.168Z,39.50
2022-11-28T04:54:45.490Z,39.13
2022-11-28T04:57:20.350Z,40.80
2022-11-28T04:59:50.703Z,40.83
2022-11-28T05:02:22.533Z,40.00
2022-11-28T05:04:53.251Z,39.63
2022-11-28T05:07:24.214Z,38.57
2022-11-28T05:09:55.698Z,39.80
2022-11-28T05:12:24.679Z,40.13
2022-11-28T05:14:53.263Z,41.07
2022-11-28T05:17:22.088Z,40.23
2022-11-28T05:19:50.820Z,40.27
2022-11-28T05:22:19.699Z,38.93
2022-11-28T05:24:48.239Z,38.13
2022-11-28T05:27:18.508Z,38.90
2022-11-28T05:29:52.062Z,36.00
2022-11-28T05:32:21.347Z,38.30
2022-11-28T05:34:49.915Z,37.10
2022-11-28T05:37:18.948Z,37.67
2022-11-28T05:39:47.498Z,37.97
2022-11-28T05:42:16.360Z,37.60
2022-11-28T05:44:47.870Z,37.73
2022-11-28T05:47:16.939Z,37.43
2022-11-28T05:49:48.259Z,39.07
2022-11-28T05:52:17.262Z,38.97
2022-11-28T05:54:45.815Z,39.80
2022-11-28T05:57:14.658Z,39.53
2022-11-28T05:59:43.632Z,38.13
2022-11-28T06:02:14.136Z,39.07
2022-11-28T06:04:43.254Z,39.83
2022-11-28T06:07:12.219Z,40.67
2022-11-28T06:09:41.217Z,39.70
2022-11-28T06:12:10.268Z,39.43
2022-11-28T06:14:39.207Z,40.17
2022-11-28T06:17:08.052Z,41.30
2022-11-28T06:19:38.272Z,40.63
2022-11-28T06:22:07.121Z,41.47
2022-11-28T06:24:35.682Z,41.37
2022-11-28T06:27:04.564Z,39.90
2022-11-28T06:29:33.381Z,40.43
2022-11-28T06:32:02.274Z,39.03
2022-11-28T06:34:32.496Z,38.83
2022-11-28T06:37:02.769Z,39.73
2022-11-28T06:39:32.044Z,40.00
2022-11-28T06:42:00.877Z,39.83
2022-11-28T06:44:29.712Z,40.30
2022-11-28T06:46:58.538Z,39.93
2022-11-28T06:49:27.161Z,39.43
2022-11-28T06:51:55.978Z,39.20
2022-11-28T06:54:25.868Z,41.30
2022-11-28T06:56:54.704Z,41.13
2022-11-28T06:59:23.443Z,42.67
2022-11-28T07:01:52.431Z,41.03
2022-11-28T07:04:21.818Z,41.70
2022-11-28T07:06:50.684Z,42.60
2022-11-28T07:09:19.370Z,42.47
2022-11-28T07:11:49.584Z,41.53
2022-11-28T07:14:18.135Z,41.47
2022-11-28T07:16:47.436Z,42.30
2022-11-28T07:19:16.720Z,41.83
2022-11-28T07:21:45.582Z,41.07
2022-11-28T07:24:14.888Z,39.60
2022-11-28T07:26:43.722Z,39.80
2022-11-28T07:29:16.768Z,39.07
2022-11-28T07:31:46.557Z,40.33
2022-11-28T07:34:16.335Z,38.27
2022-11-28T07:36:45.423Z,39.23
2022-11-28T07:39:18.566Z,38.73
2022-11-28T07:41:47.445Z,41.43
2022-11-28T07:44:18.177Z,38.87
2022-11-28T07:46:47.959Z,36.40
2022-11-28T07:49:16.956Z,37.77
2022-11-28T07:51:45.818Z,37.70
2022-11-28T07:54:14.565Z,38.00
2022-11-28T07:59:33.623Z,36.40
2022-11-28T08:02:02.560Z,35.10
2022-11-28T08:04:31.272Z,35.77
2022-11-28T08:07:00.144Z,35.40
2022-11-28T08:09:28.762Z,34.57
2022-11-28T08:11:57.630Z,35.17
2022-11-28T08:14:26.553Z,35.47
2022-11-28T08:16:56.895Z,36.17
2022-11-28T08:19:27.347Z,34.50
2022-11-28T08:21:58.308Z,33.87
2022-11-28T08:24:27.290Z,35.17
2022-11-28T08:26:56.136Z,34.30
2022-11-28T08:29:24.732Z,31.83
2022-11-28T08:31:53.698Z,33.80
2022-11-28T08:34:23.666Z,34.20
2022-11-28T08:36:52.530Z,34.40
2022-11-28T08:39:25.335Z,33.43
2022-11-28T08:41:57.200Z,32.20
2022-11-28T08:44:26.922Z,33.30
2022-11-28T08:46:56.847Z,33.80
2022-11-28T08:49:26.809Z,35.30
2022-11-28T08:51:56.044Z,34.00
2022-11-28T08:54:24.737Z,34.97
2022-11-28T08:56:53.588Z,36.57
2022-11-28T08:59:22.432Z,34.43
2022-11-28T09:01:53.786Z,34.07
2022-11-28T09:04:23.820Z,36.13
2022-11-28T09:06:54.268Z,33.13
2022-11-28T09:09:22.983Z,32.40
2022-11-28T09:11:51.871Z,32.70
2022-11-28T09:14:20.467Z,32.27
2022-11-28T09:16:50.510Z,31.23
2022-11-28T09:19:19.156Z,32.47
2022-11-28T09:21:49.317Z,34.10
2022-11-28T09:24:21.954Z,32.27
2022-11-28T09:26:50.799Z,30.50
2022-11-28T09:29:19.534Z,31.23
2022-11-28T09:31:48.365Z,32.07
2022-11-28T09:34:17.273Z,30.77
2022-11-28T09:36:46.157Z,33.80
2022-11-28T09:39:14.724Z,32.63
2022-11-28T09:42:04.413Z,31.70
2022-11-28T09:44:44.110Z,32.23
2022-11-28T09:47:21.133Z,31.73
2022-11-28T09:49:58.167Z,31.90
2022-11-28T09:52:37.667Z,32.00
2022-11-28T09:55:18.816Z,29.52
2022-11-28T09:57:52.083Z,28.10
2022-11-28T10:00:24.037Z,28.93
2022-11-28T10:03:26.743Z,27.40
2022-11-28T10:06:11.232Z,27.50
2022-11-28T10:09:17.437Z,28.48
2022-11-28T10:12:03.448Z,27.45
2022-11-28T10:15:03.575Z,27.58
2022-11-28T10:17:47.232Z,27.55
2022-11-28T10:20:23.871Z,28.47
2022-11-28T10:22:58.642Z,26.52
2022-11-28T10:25:34.758Z,27.40
2022-11-28T10:28:07.702Z,24.10
2022-11-28T10:30:42.957Z,26.00
2022-11-28T10:33:24.944Z,25.27
2022-11-28T10:35:58.644Z,26.17
2022-11-28T10:38:30.756Z,40.83
2022-11-28T10:41:09.060Z,30.60
2022-11-28T10:43:46.977Z,26.37
2022-11-28T10:46:40.399Z,23.50
2022-11-28T10:49:31.894Z,36.63
2022-11-28T10:52:14.167Z,24.48
2022-11-28T10:55:08.330Z,27.00
2022-11-28T10:57:46.443Z,22.23
2022-11-28T11:00:18.266Z,26.63
2022-11-28T11:02:52.444Z,22.17
2022-11-28T11:05:26.984Z,22.08
2022-11-28T11:07:59.483Z,22.20
2022-11-28T11:10:37.700Z,26.83
2022-11-28T11:13:17.595Z,24.97
2022-11-28T11:15:48.404Z,22.20
2022-11-28T11:18:28.821Z,22.17
2022-11-28T11:21:14.488Z,20.95
2022-11-28T11:23:44.004Z,21.40
2022-11-28T11:26:26.165Z,20.37
2022-11-28T11:28:55.772Z,21.90
2022-11-28T11:31:28.889Z,22.53
2022-11-28T11:34:09.023Z,20.97
2022-11-28T11:36:38.839Z,21.73
2022-11-28T11:39:25.471Z,23.48
2022-11-28T11:42:13.258Z,22.83
2022-11-28T11:44:43.804Z,20.17
2022-11-28T11:47:12.692Z,24.67
2022-11-28T11:49:46.553Z,21.70
2022-11-28T11:52:25.491Z,22.77
2022-11-28T11:55:01.041Z,20.57
2022-11-28T11:57:38.131Z,22.23
2022-11-28T12:00:17.056Z,21.43
2022-11-28T12:02:48.231Z,21.37
2022-11-28T12:05:22.035Z,26.13
2022-11-28T12:08:01.027Z,23.00
2022-11-28T12:10:35.468Z,21.30
2022-11-28T12:13:04.919Z,19.60
2022-11-28T12:15:52.897Z,19.13
2022-11-28T12:18:36.219Z,19.43
2022-11-28T12:21:31.146Z,19.17
2022-11-28T12:24:13.233Z,20.70
2022-11-28T12:26:48.901Z,20.37
2022-11-28T12:29:47.450Z,21.80
2022-11-28T12:32:39.548Z,22.92
2022-11-28T12:35:28.644Z,22.03
2022-11-28T12:38:19.168Z,22.60
2022-11-28T12:41:23.231Z,22.33
2022-11-28T12:44:09.524Z,24.00
2022-11-28T12:46:53.148Z,24.30
2022-11-28T12:49:36.544Z,22.40
2022-11-28T12:52:32.853Z,23.52
2022-11-28T12:55:30.108Z,23.77
2022-11-28T12:58:13.705Z,23.60
2022-11-28T13:00:58.556Z,23.73
2022-11-28T13:03:42.287Z,23.83
2022-11-28T13:06:32.912Z,24.48
2022-11-28T13:09:28.957Z,24.40
2022-11-28T13:12:21.445Z,26.73
2022-11-28T13:14:56.962Z,23.38
2022-11-28T13:17:43.634Z,27.40
2022-11-28T13:20:26.428Z,23.67
2022-11-28T13:23:19.134Z,25.67
2022-11-28T13:25:57.390Z,29.80
2022-11-28T13:28:35.919Z,26.37
2022-11-28T13:31:14.079Z,24.10
2022-11-28T13:33:52.204Z,21.17
2022-11-28T13:39:37.007Z,23.57
2022-11-28T13:45:32.377Z,23.37
2022-11-28T13:48:32.226Z,25.35
2022-11-28T13:51:23.986Z,22.77
2022-11-28T13:54:45.284Z,22.67
2022-11-28T13:57:39.791Z,22.77
2022-11-28T14:00:25.140Z,21.90
2022-11-28T14:02:58.269Z,24.47
2022-11-28T14:05:36.387Z,23.87
2022-11-28T14:08:07.688Z,23.25
2022-11-28T14:11:01.221Z,29.27
2022-11-28T14:14:04.034Z,24.83
2022-11-28T14:16:52.788Z,24.80
2022-11-28T14:19:46.464Z,23.10
2022-11-28T14:22:35.350Z,22.00
2022-11-28T14:25:18.001Z,21.83
2022-11-28T14:27:54.814Z,23.00
2022-11-28T14:30:35.327Z,21.07
2022-11-28T14:33:18.169Z,22.98
2022-11-28T14:36:23.680Z,24.30
2022-11-28T14:39:33.517Z,23.38
2022-11-28T14:42:59.526Z,25.13
2022-11-28T14:45:45.948Z,24.55
2022-11-28T14:48:28.554Z,25.38
2022-11-28T14:51:01.902Z,25.60
2022-11-28T14:53:45.694Z,27.53
2022-11-28T14:56:29.074Z,27.03
2022-11-28T14:59:03.506Z,27.57
2022-11-28T15:01:50.602Z,25.10
2022-11-28T15:04:51.964Z,26.25
2022-11-28T15:07:36.502Z,26.30
2022-11-28T15:10:18.219Z,26.17
2022-11-28T15:13:05.718Z,26.80
2022-11-28T15:15:34.958Z,23.43
2022-11-28T15:18:06.506Z,26.00
2022-11-28T15:20:47.553Z,24.35
2022-11-28T15:23:29.957Z,24.90
2022-11-28T15:26:02.105Z,23.83
2022-11-28T15:28:35.492Z,25.30
2022-11-28T15:31:06.655Z,24.30
2022-11-28T15:33:35.580Z,25.20
2022-11-28T15:36:20.008Z,25.30
2022-11-28T15:38:48.703Z,23.25
2022-11-28T15:41:23.806Z,23.75
2022-11-28T15:43:55.146Z,22.90
2022-11-28T15:46:33.692Z,22.47
2022-11-28T15:49:03.994Z,23.53
2022-11-28T15:51:36.092Z,23.87
2022-11-28T15:54:28.600Z,23.53
2022-11-28T15:56:58.315Z,23.80
2022-11-28T15:59:27.670Z,23.03
2022-11-28T16:02:02.699Z,22.93
2022-11-28T16:04:32.727Z,22.40
2022-11-28T16:07:03.437Z,25.97
2022-11-28T16:09:36.251Z,23.80
2022-11-28T16:12:15.254Z,25.37
2022-11-28T16:14:46.488Z,25.53
2022-11-28T16:17:21.443Z,24.47
2022-11-28T16:19:53.816Z,25.00
2022-11-28T16:22:34.923Z,23.73
2022-11-28T16:25:22.314Z,25.43
2022-11-28T16:27:53.375Z,25.03
2022-11-28T16:30:36.954Z,24.60
2022-11-28T16:33:38.455Z,25.20
2022-11-28T16:36:21.631Z,25.63
2022-11-28T16:38:54.691Z,23.70
2022-11-28T16:41:26.058Z,24.80
2022-11-28T16:44:00.253Z,25.25
2022-11-28T16:46:37.707Z,26.40
2022-11-28T16:49:33.147Z,26.40
2022-11-28T16:52:46.038Z,25.80
2022-11-28T16:55:46.436Z,23.97
2022-11-28T16:58:22.474Z,24.40
2022-11-28T17:01:01.105Z,24.97
2022-11-28T17:03:49.265Z,26.10
2022-11-28T17:06:28.133Z,25.87
2022-11-28T17:08:57.535Z,23.97
2022-11-28T17:11:31.822Z,25.43
2022-11-28T17:14:02.692Z,25.53
2022-11-28T17:16:35.988Z,26.07
2022-11-28T17:19:04.960Z,25.47
2022-11-28T17:21:41.793Z,24.60
2022-11-28T17:24:18.602Z,24.40
2022-11-28T17:26:47.926Z,23.00
2022-11-28T17:29:17.270Z,26.17
2022-11-28T17:31:48.415Z,24.87
2022-11-28T17:34:19.316Z,25.80
2022-11-28T17:36:49.816Z,23.83
2022-11-28T17:39:21.032Z,25.93
2022-11-28T17:41:51.185Z,24.23
2022-11-28T17:44:22.377Z,24.30
2022-11-28T17:46:53.273Z,24.70
2022-11-28T17:49:23.508Z,24.37
2022-11-28T17:51:55.994Z,24.33
2022-11-28T17:54:27.873Z,25.00
2022-11-28T17:56:57.009Z,24.67
2022-11-28T17:59:27.124Z,24.07
2022-11-28T18:01:56.138Z,24.43
2022-11-28T18:04:26.721Z,23.50
2022-11-28T18:06:56.982Z,21.90
2022-11-28T18:09:26.692Z,24.90
2022-11-28T18:11:55.609Z,24.33
2022-11-28T18:14:24.405Z,23.47
2022-11-28T18:16:53.087Z,24.53
2022-11-28T18:19:22.010Z,22.73
2022-11-28T18:21:50.697Z,24.97
2022-11-28T18:24:21.021Z,23.57
2022-11-28T18:26:49.591Z,24.17
2022-11-28T18:29:18.714Z,24.20
2022-11-28T18:31:47.627Z,24.43
2022-11-28T18:34:18.211Z,24.60
2022-11-28T18:36:46.889Z,23.87
2022-11-28T18:39:17.115Z,25.00
2022-11-28T18:41:47.984Z,28.40
2022-11-28T18:44:17.226Z,25.60
2022-11-28T18:46:45.855Z,24.83
2022-11-28T18:49:16.627Z,27.57
2022-11-28T18:51:45.262Z,25.37
2022-11-28T18:54:20.536Z,26.97
2022-11-28T18:56:51.132Z,26.70
2022-11-28T18:59:20.204Z,27.03
2022-11-28T19:01:49.258Z,24.90
2022-11-28T19:04:19.148Z,24.53
2022-11-28T19:06:48.616Z,24.87
2022-11-28T19:09:19.108Z,23.93
2022-11-28T19:11:47.910Z,25.43
2022-11-28T19:14:21.217Z,25.17
2022-11-28T19:16:50.289Z,25.00
2022-11-28T19:19:19.821Z,25.23
2022-11-28T19:21:50.883Z,25.83
2022-11-28T19:24:20.548Z,26.37
2022-11-28T19:26:50.658Z,26.03
2022-11-28T19:29:21.048Z,25.63
2022-11-28T19:31:50.335Z,26.33
2022-11-28T19:34:20.621Z,24.70
2022-11-28T19:36:52.053Z,26.50
2022-11-28T19:39:23.922Z,25.63
2022-11-28T19:41:54.490Z,25.07
2022-11-28T19:44:28.961Z,25.90
2022-11-28T19:46:57.633Z,25.83
2022-11-28T19:49:26.550Z,25.57
2022-11-28T19:51:55.581Z,27.80
2022-11-28T19:54:25.569Z,26.13
2022-11-28T19:56:56.623Z,25.33
2022-11-28T19:59:27.351Z,26.80
2022-11-28T20:01:56.204Z,25.90
2022-11-28T20:04:25.162Z,28.30
2022-11-28T20:06:54.412Z,26.87
2022-11-28T20:09:23.481Z,25.77
2022-11-28T20:11:52.095Z,24.43
2022-11-28T20:14:22.250Z,26.97
2022-11-28T20:16:53.169Z,26.70
2022-11-28T20:19:22.874Z,28.83
2022-11-28T20:21:51.537Z,26.37
2022-11-28T20:24:22.062Z,24.53
2022-11-28T20:26:51.971Z,25.07
2022-11-28T20:29:26.733Z,25.03
2022-11-28T20:31:57.591Z,24.67
2022-11-28T20:34:28.784Z,24.30
2022-11-28T20:36:59.332Z,25.13
2022-11-28T20:39:28.211Z,23.23
2022-11-28T20:41:56.864Z,21.87
2022-11-28T20:44:25.784Z,24.10
2022-11-28T20:46:55.969Z,21.57
2022-11-28T20:49:24.896Z,23.93
2022-11-28T20:51:53.475Z,23.03
2022-11-28T20:54:22.468Z,22.07
2022-11-28T20:57:19.567Z,21.03
2022-11-28T20:59:41.546Z,21.67
2022-11-28T21:02:12.710Z,22.37
2022-11-28T21:04:41.621Z,20.37
2022-11-28T21:07:10.310Z,19.67
2022-11-28T21:09:39.164Z,20.57
2022-11-28T21:12:08.795Z,18.70
2022-11-28T21:14:37.626Z,19.53
2022-11-28T21:17:06.223Z,18.93
2022-11-28T21:19:36.404Z,20.23
2022-11-28T21:22:05.079Z,19.60
2022-11-28T21:24:34.045Z,18.00
2022-11-28T21:27:02.589Z,18.53
2022-11-28T21:29:31.433Z,19.33
2022-11-28T21:32:00.028Z,19.63
2022-11-28T21:34:28.973Z,18.90
2022-11-28T21:36:58.847Z,17.57
2022-11-28T21:39:28.112Z,18.30
2022-11-28T21:41:56.883Z,17.63
2022-11-28T21:44:25.707Z,17.53
2022-11-28T21:46:54.315Z,19.57
2022-11-28T21:49:24.081Z,18.10
2022-11-28T21:51:55.324Z,18.67
2022-11-28T21:54:27.717Z,18.40
2022-11-28T21:56:56.412Z,17.90
2022-11-28T21:59:25.912Z,18.70
2022-11-28T22:01:56.179Z,19.10
2022-11-28T22:04:25.707Z,18.67
2022-11-28T22:06:54.371Z,18.43
2022-11-28T22:09:23.240Z,17.63
2022-11-28T22:11:53.276Z,19.20
2022-11-28T22:14:22.344Z,19.50
2022-11-28T22:16:50.928Z,20.13
2022-11-28T22:19:20.103Z,20.10
2022-11-28T22:21:52.031Z,19.93
2022-11-28T22:24:23.836Z,19.47
2022-11-28T22:26:54.188Z,19.67
2022-11-28T22:29:23.428Z,21.10
2022-11-28T22:31:52.143Z,20.17
2022-11-28T22:34:21.292Z,19.20
2022-11-28T22:36:49.934Z,19.57
2022-11-28T22:39:22.122Z,20.03
2022-11-28T22:41:51.155Z,19.17
2022-11-28T22:44:23.329Z,18.10
2022-11-28T22:46:52.011Z,19.27
2022-11-28T22:49:20.920Z,18.27
2022-11-28T22:51:49.611Z,18.57
2022-11-28T22:54:18.593Z,18.90
2022-11-28T22:56:47.205Z,19.20
2022-11-28T22:59:17.756Z,18.40
2022-11-28T23:01:48.134Z,18.53
2022-11-28T23:04:17.288Z,18.17
2022-11-28T23:06:45.916Z,18.40
2022-11-28T23:09:15.626Z,20.07
2022-11-28T23:11:46.124Z,19.03
2022-11-28T23:14:16.439Z,19.00
2022-11-28T23:16:47.023Z,18.70
2022-11-28T23:19:18.467Z,19.37
2022-11-28T23:21:49.995Z,19.17
2022-11-28T23:24:23.456Z,18.60
2022-11-28T23:26:53.676Z,18.97
2022-11-28T23:29:22.551Z,18.90
2022-11-28T23:31:52.563Z,18.57
2022-11-28T23:34:21.793Z,19.10
2022-11-28T23:36:50.668Z,19.10
2022-11-28T23:39:23.291Z,18.30
2022-11-28T23:41:52.270Z,18.67
2022-11-28T23:44:21.726Z,17.77
2022-11-28T23:46:50.341Z,18.23
2022-11-28T23:49:20.600Z,17.77
2022-11-28T23:51:49.166Z,18.13
2022-11-28T23:54:18.611Z,18.10
2022-11-28T23:56:47.185Z,18.57
2022-11-28T23:59:16.082Z,18.90
